Terminal Aerodrome Forecast
Issued by NWS Cleveland, OH

Home | Current Version | Previous Version | Text Only | Print | Product List | Glossary On
Versions: 1 2 3 4 5 6 7 8 9 10 11 12 13 14 15 16 17 18
000
FTUS41 KCLE 272339
TAFTOL
TAF
KTOL 272339Z 2800/2824 VRB03KT P6SM FEW025 BKN150
     FM280900 VRB03KT 6SM BR FEW150 SCT250
      TEMPO 2810/2813 2SM BR BKN008
     FM281500 24005KT P6SM SCT040 BKN200
     FM282200 33005KT P6SM FEW040 BKN150=

USA.gov is the U.S. government's official web portal to all federal, state and local government web resources and services.